Time;durP1;ratioP1;P1;durP2;ratioP2;P2;SDS_P1;SDS_P2;PMS_P1;PMS_P2;Temp;Humidity;BMP_temperature;BMP_pressure;BME280_temperature;BME280_humidity;BME280_pressure;Samples;Min_cycle;Max_cycle;Signal;HPM_P1;HPM_P2
2023/12/09 00:01:19;;;;;;;11.63;10.47;;;6.50;44.80;;;;;;10427423;28;20229;-74
2023/12/09 00:06:23;;;;;;;12.63;11.37;;;6.50;45.00;;;;;;10421176;28;20316;-75
2023/12/09 00:11:26;;;;;;;12.23;11.13;;;6.50;44.80;;;;;;10416769;28;20312;-74
2023/12/09 00:16:31;;;;;;;11.90;10.80;;;6.50;44.80;;;;;;10420990;28;20338;-75
2023/12/09 00:21:34;;;;;;;10.40;9.40;;;6.60;45.10;;;;;;10424617;28;20240;-74
2023/12/09 00:26:37;;;;;;;11.17;10.10;;;6.60;44.80;;;;;;10421227;28;20248;-75
2023/12/09 00:31:42;;;;;;;12.23;11.03;;;6.60;44.80;;;;;;10424183;28;20938;-74
2023/12/09 00:36:45;;;;;;;12.93;11.63;;;6.60;44.90;;;;;;10425938;28;20912;-74
2023/12/09 00:41:48;;;;;;;12.87;11.63;;;6.60;44.80;;;;;;10423529;28;20312;-74
2023/12/09 00:46:53;;;;;;;11.00;9.90;;;6.60;44.70;;;;;;10423652;28;20238;-74
2023/12/09 00:51:56;;;;;;;10.27;9.27;;;6.60;44.90;;;;;;10416381;28;20232;-75
2023/12/09 00:56:59;;;;;;;11.17;10.17;;;6.60;44.70;;;;;;10422202;28;20232;-75
2023/12/09 01:02:04;;;;;;;11.60;10.50;;;6.60;44.70;;;;;;10423634;28;20233;-75
2023/12/09 01:07:08;;;;;;;11.63;10.53;;;6.60;44.80;;;;;;10423498;28;21021;-75
2023/12/09 01:12:11;;;;;;;11.47;10.37;;;6.60;44.60;;;;;;10421410;28;20279;-75
2023/12/09 01:17:16;;;;;;;10.67;9.57;;;6.60;44.60;;;;;;10423123;28;20229;-76
2023/12/09 01:22:19;;;;;;;11.23;10.23;;;6.60;44.80;;;;;;10421430;28;20221;-76
2023/12/09 01:27:22;;;;;;;11.73;10.73;;;6.60;44.60;;;;;;10422680;28;20917;-75
2023/12/09 01:32:27;;;;;;;8.80;8.00;;;6.60;44.60;;;;;;10426833;28;20309;-76
2023/12/09 01:37:30;;;;;;;10.60;9.70;;;6.70;44.80;;;;;;10422978;28;20236;-75
2023/12/09 01:42:33;;;;;;;11.50;10.50;;;6.60;44.70;;;;;;10424459;28;20786;-75
2023/12/09 01:47:39;;;;;;;9.40;8.53;;;6.60;44.60;;;;;;10423534;28;20853;-78
2023/12/09 01:52:43;;;;;;;10.77;9.77;;;6.60;44.80;;;;;;10423429;28;20224;-76
2023/12/09 01:57:46;;;;;;;10.50;9.20;;;6.60;44.70;;;;;;10415144;28;20306;-76
2023/12/09 02:02:51;;;;;;;9.63;8.80;;;6.60;44.70;;;;;;10422307;28;20667;-76
2023/12/09 02:07:54;;;;;;;10.93;9.87;;;6.60;44.90;;;;;;10425135;28;20761;-75
2023/12/09 02:13:02;;;;;;;10.93;9.80;;;6.60;44.80;;;;;;10426317;28;20239;-75
2023/12/09 02:18:08;;;;;;;10.40;9.40;;;6.60;45.00;;;;;;10420548;28;20260;-75
2023/12/09 02:23:14;;;;;;;10.47;9.47;;;6.60;45.00;;;;;;10421656;28;20229;-74
2023/12/09 02:28:20;;;;;;;10.80;9.80;;;6.70;45.00;;;;;;10417685;28;20229;-75
2023/12/09 02:33:25;;;;;;;9.00;8.17;;;6.70;45.00;;;;;;10420261;28;20226;-75
2023/12/09 02:38:32;;;;;;;10.53;9.53;;;6.70;44.80;;;;;;10422524;28;21057;-75
2023/12/09 02:43:35;;;;;;;11.30;10.23;;;6.70;45.10;;;;;;10426089;28;20237;-75
2023/12/09 02:48:39;;;;;;;10.60;9.60;;;6.70;44.90;;;;;;10422422;28;20239;-74
2023/12/09 02:53:44;;;;;;;10.90;9.90;;;6.70;44.80;;;;;;10426828;28;20239;-75
2023/12/09 02:58:47;;;;;;;11.17;10.13;;;6.70;44.90;;;;;;10423878;28;20243;-75
2023/12/09 03:03:50;;;;;;;11.73;10.53;;;6.70;44.80;;;;;;10418495;28;20244;-75
2023/12/09 03:08:55;;;;;;;10.57;9.67;;;6.70;44.70;;;;;;10426686;28;20291;-75
2023/12/09 03:13:58;;;;;;;11.00;9.90;;;6.80;44.90;;;;;;10423264;28;20326;-76
2023/12/09 03:19:01;;;;;;;11.60;10.40;;;6.70;44.80;;;;;;10426755;28;20237;-75
2023/12/09 03:24:06;;;;;;;12.30;11.10;;;6.70;44.80;;;;;;10425579;28;20728;-75
2023/12/09 03:29:09;;;;;;;14.87;12.23;;;6.70;45.00;;;;;;10432498;28;21024;-75
2023/12/09 03:34:13;;;;;;;11.70;10.53;;;6.70;44.90;;;;;;10411862;28;20240;-76
2023/12/09 03:39:18;;;;;;;15.77;12.47;;;6.60;44.80;;;;;;10429967;28;20240;-75
2023/12/09 03:44:21;;;;;;;12.93;11.43;;;6.60;45.00;;;;;;10429366;28;20236;-75
2023/12/09 03:49:25;;;;;;;11.73;10.53;;;6.60;44.90;;;;;;10427566;28;20299;-75
2023/12/09 03:54:29;;;;;;;11.63;10.43;;;6.60;44.90;;;;;;10428488;28;20237;-75
2023/12/09 03:59:32;;;;;;;13.40;12.00;;;6.60;44.90;;;;;;10427169;28;20241;-75
2023/12/09 04:04:39;;;;;;;11.90;10.67;;;6.60;44.80;;;;;;10429977;28;20327;-74
2023/12/09 04:09:44;;;;;;;12.87;11.57;;;6.60;45.10;;;;;;10428776;28;20263;-75
2023/12/09 04:14:47;;;;;;;12.83;11.57;;;6.60;45.10;;;;;;10433371;28;20916;-75
2023/12/09 04:19:52;;;;;;;11.67;10.57;;;6.60;45.00;;;;;;10423520;28;20357;-75
2023/12/09 04:24:58;;;;;;;12.20;11.10;;;6.60;45.10;;;;;;10430174;28;20245;-75
2023/12/09 04:30:02;;;;;;;12.63;11.43;;;6.60;45.30;;;;;;10429951;28;20237;-75
2023/12/09 04:35:08;;;;;;;13.37;12.00;;;6.60;45.20;;;;;;10427884;28;20245;-75
2023/12/09 04:40:12;;;;;;;11.93;10.83;;;6.60;45.20;;;;;;10428819;28;20283;-75
2023/12/09 04:45:20;;;;;;;13.03;11.83;;;6.60;45.30;;;;;;10423470;28;20226;-75
2023/12/09 04:50:24;;;;;;;13.70;12.33;;;6.60;45.20;;;;;;10424941;28;20284;-75
2023/12/09 04:55:28;;;;;;;13.40;12.00;;;6.70;45.10;;;;;;10430001;28;20249;-75
2023/12/09 05:00:31;;;;;;;13.93;12.57;;;6.70;45.20;;;;;;10420372;28;20230;-75
2023/12/09 05:05:35;;;;;;;14.70;12.77;;;6.60;45.00;;;;;;10428894;28;20232;-75
2023/12/09 05:10:39;;;;;;;16.00;14.37;;;6.70;45.00;;;;;;10425320;28;20290;-74
2023/12/09 05:15:43;;;;;;;13.70;12.30;;;6.60;45.00;;;;;;10425746;28;20245;-75
2023/12/09 05:20:46;;;;;;;15.40;13.37;;;6.60;44.90;;;;;;10423827;28;20229;-74
2023/12/09 05:25:51;;;;;;;13.60;12.20;;;6.50;45.10;;;;;;10417914;28;20282;-74
2023/12/09 05:30:55;;;;;;;15.37;12.97;;;6.50;45.40;;;;;;10429021;28;20275;-74
2023/12/09 05:35:58;;;;;;;12.03;10.87;;;6.50;45.40;;;;;;10430227;28;20280;-75
2023/12/09 05:41:03;;;;;;;12.67;11.37;;;6.40;45.30;;;;;;10425588;28;20241;-74
2023/12/09 05:46:06;;;;;;;12.80;11.50;;;6.40;45.50;;;;;;10427070;28;20240;-74
2023/12/09 05:51:11;;;;;;;16.33;14.73;;;6.40;45.60;;;;;;10429456;28;20223;-75
2023/12/09 05:56:15;;;;;;;14.83;13.33;;;6.40;45.60;;;;;;10427573;28;20265;-76
2023/12/09 06:01:18;;;;;;;18.40;15.97;;;6.50;45.80;;;;;;10424265;28;20240;-76
2023/12/09 06:06:21;;;;;;;16.47;14.87;;;6.50;45.60;;;;;;10424767;28;20249;-76
2023/12/09 06:11:26;;;;;;;15.20;13.70;;;6.50;45.50;;;;;;10428520;28;20280;-76
2023/12/09 06:16:29;;;;;;;16.03;14.43;;;6.50;45.70;;;;;;10421700;28;20992;-75
2023/12/09 06:21:33;;;;;;;15.50;13.90;;;6.50;45.50;;;;;;10421066;28;20316;-75
2023/12/09 06:26:44;;;;;;;15.73;14.20;;;6.60;45.60;;;;;;10427539;28;20956;-76
2023/12/09 06:31:47;;;;;;;16.00;14.07;;;6.60;46.00;;;;;;10421295;28;20235;-76
2023/12/09 06:36:50;;;;;;;16.20;14.57;;;6.60;45.50;;;;;;10422371;28;20249;-75
2023/12/09 06:41:54;;;;;;;17.17;15.37;;;6.60;45.50;;;;;;10428234;28;20331;-75
2023/12/09 06:46:58;;;;;;;15.83;14.17;;;6.60;45.60;;;;;;10429457;28;20237;-76
2023/12/09 06:52:01;;;;;;;16.80;15.13;;;6.70;45.60;;;;;;10431254;28;20311;-76
2023/12/09 06:57:06;;;;;;;15.90;14.20;;;6.70;45.50;;;;;;10435767;28;20243;-75
2023/12/09 07:02:09;;;;;;;15.60;13.97;;;6.70;45.60;;;;;;10433430;28;20236;-75
2023/12/09 07:07:12;;;;;;;13.93;12.53;;;6.70;45.50;;;;;;10436429;28;20239;-76
2023/12/09 07:12:26;;;;;;;12.67;11.37;;;6.70;45.40;;;;;;10427269;28;20714;-76
2023/12/09 07:17:30;;;;;;;14.63;13.03;;;6.70;45.60;;;;;;10431662;28;20318;-76
2023/12/09 07:22:33;;;;;;;14.00;12.63;;;6.80;45.40;;;;;;10426055;28;20233;-75
2023/12/09 07:27:38;;;;;;;15.17;13.63;;;6.70;45.30;;;;;;10428683;28;20243;-77
2023/12/09 07:32:41;;;;;;;14.80;13.20;;;6.70;45.50;;;;;;10429692;28;20220;-76
2023/12/09 07:37:44;;;;;;;18.97;17.03;;;6.70;45.50;;;;;;10422739;28;20322;-76
2023/12/09 07:42:51;;;;;;;17.67;15.87;;;6.70;45.40;;;;;;10422197;28;20601;-77
2023/12/09 07:47:54;;;;;;;17.93;16.13;;;6.70;45.60;;;;;;10428359;28;20232;-78
2023/12/09 07:52:58;;;;;;;17.70;15.87;;;6.70;45.50;;;;;;10428319;28;20236;-77
2023/12/09 07:58:03;;;;;;;19.53;17.50;;;6.70;45.60;;;;;;10426917;28;20316;-77
2023/12/09 08:03:07;;;;;;;25.10;22.50;;;6.70;45.90;;;;;;10427235;28;21221;-76
2023/12/09 08:08:10;;;;;;;18.13;16.23;;;6.80;45.90;;;;;;10427918;28;20267;-77
2023/12/09 08:13:15;;;;;;;17.33;15.53;;;6.70;45.90;;;;;;10427874;28;20228;-77
2023/12/09 08:18:18;;;;;;;17.10;15.30;;;6.80;46.30;;;;;;10422019;28;20611;-76
2023/12/09 08:23:22;;;;;;;21.33;19.07;;;6.90;46.20;;;;;;10425259;28;20596;-76
2023/12/09 08:28:27;;;;;;;19.53;17.53;;;6.90;46.00;;;;;;10423890;28;20706;-76
2023/12/09 08:33:30;;;;;;;15.83;14.23;;;7.00;46.20;;;;;;10420439;28;20268;-77
2023/12/09 08:38:34;;;;;;;18.17;16.27;;;7.00;46.00;;;;;;10424639;28;20244;-77
2023/12/09 08:43:38;;;;;;;22.33;18.30;;;7.10;46.10;;;;;;10426103;28;20248;-76
2023/12/09 08:48:42;;;;;;;18.17;15.43;;;7.10;46.20;;;;;;10421393;28;20256;-76
2023/12/09 08:53:45;;;;;;;18.73;16.70;;;7.00;46.00;;;;;;10416490;28;20256;-76
2023/12/09 08:58:50;;;;;;;18.57;16.37;;;7.20;46.20;;;;;;10429900;28;20327;-76
2023/12/09 09:03:53;;;;;;;15.87;14.27;;;7.20;46.50;;;;;;10427577;28;20229;-76
2023/12/09 09:08:56;;;;;;;23.93;15.50;;;7.20;46.50;;;;;;10423291;28;20225;-76
2023/12/09 09:14:01;;;;;;;19.40;14.30;;;7.20;46.40;;;;;;10421881;28;20243;-76
2023/12/09 09:19:04;;;;;;;16.47;13.80;;;7.30;46.70;;;;;;10420518;28;20225;-76
2023/12/09 09:24:08;;;;;;;20.17;18.07;;;7.30;46.50;;;;;;10422781;28;21290;-76
2023/12/09 09:29:15;;;;;;;21.27;18.80;;;7.30;46.60;;;;;;10424006;28;20234;-76
2023/12/09 09:34:18;;;;;;;18.80;16.43;;;7.40;46.90;;;;;;10436718;28;20243;-76
2023/12/09 09:39:22;;;;;;;17.83;15.93;;;7.30;46.90;;;;;;10442152;28;20734;-72
2023/12/09 09:44:28;;;;;;;35.30;31.30;;;7.40;47.10;;;;;;10438208;28;20245;-77
2023/12/09 09:49:36;;;;;;;29.33;26.13;;;7.40;47.40;;;;;;10439488;28;20631;-76
2023/12/09 09:54:40;;;;;;;24.30;20.93;;;7.50;47.30;;;;;;10436043;28;20646;-78
2023/12/09 09:59:45;;;;;;;25.77;19.47;;;7.50;47.10;;;;;;10429562;28;20234;-78
2023/12/09 10:04:48;;;;;;;19.40;15.60;;;7.60;47.30;;;;;;10393745;28;21022;-78
2023/12/09 10:09:52;;;;;;;13.47;10.50;;;7.60;47.10;;;;;;10430469;28;20228;-77
2023/12/09 10:14:56;;;;;;;16.97;13.27;;;7.70;48.80;;;;;;10426101;28;20239;-77
2023/12/09 10:20:00;;;;;;;22.67;15.90;;;8.00;51.40;;;;;;10432870;28;20662;-76
2023/12/09 10:25:04;;;;;;;21.17;16.80;;;8.20;49.40;;;;;;10431104;28;20237;-75
2023/12/09 10:30:10;;;;;;;13.60;12.20;;;8.40;48.20;;;;;;10429834;28;20276;-76
2023/12/09 10:35:13;;;;;;;16.80;15.00;;;8.40;47.60;;;;;;10434732;28;20232;-76
2023/12/09 10:40:22;;;;;;;16.97;15.27;;;8.30;47.00;;;;;;10422829;28;20239;-76
2023/12/09 10:45:30;;;;;;;12.67;11.37;;;8.20;47.40;;;;;;10425800;28;20258;-77
2023/12/09 10:50:37;;;;;;;12.40;10.67;;;8.10;47.40;;;;;;10429562;28;20704;-77
2023/12/09 10:55:41;;;;;;;11.93;10.73;;;8.10;47.60;;;;;;10435914;28;20523;-77
2023/12/09 11:00:46;;;;;;;11.33;10.20;;;8.20;47.40;;;;;;10436988;28;20232;-76
2023/12/09 11:05:52;;;;;;;14.73;10.90;;;8.20;47.60;;;;;;10431725;28;20328;-78
2023/12/09 11:10:56;;;;;;;13.67;10.03;;;8.30;47.60;;;;;;10421851;28;20229;-77
2023/12/09 11:16:13;;;;;;;16.07;11.70;;;8.30;47.40;;;;;;10428455;28;20237;-76
2023/12/09 11:21:19;;;;;;;20.53;13.63;;;8.30;47.90;;;;;;10439100;28;20316;-77
2023/12/09 11:26:29;;;;;;;15.80;13.07;;;8.40;47.70;;;;;;10433985;28;20240;-77
2023/12/09 11:31:35;;;;;;;17.70;14.23;;;8.40;47.90;;;;;;10423490;28;20229;-76
2023/12/09 11:36:39;;;;;;;19.90;14.63;;;8.40;47.90;;;;;;10423743;28;20243;-77
2023/12/09 11:41:42;;;;;;;17.10;13.10;;;8.50;48.60;;;;;;10418712;28;20233;-77
2023/12/09 11:46:47;;;;;;;16.30;13.77;;;8.60;48.40;;;;;;10422577;28;20237;-77
2023/12/09 11:51:50;;;;;;;20.40;11.70;;;8.70;48.00;;;;;;10420734;28;20225;-79
2023/12/09 11:56:53;;;;;;;17.17;12.47;;;8.80;47.70;;;;;;10422432;28;20233;-78
2023/12/09 12:01:59;;;;;;;19.63;11.93;;;8.80;47.40;;;;;;10429598;28;20249;-80
2023/12/09 12:07:02;;;;;;;17.40;12.90;;;8.70;47.50;;;;;;10419946;28;20313;-79
2023/12/09 12:12:06;;;;;;;21.03;13.27;;;8.60;47.20;;;;;;10426110;28;20721;-79
2023/12/09 12:17:12;;;;;;;18.67;13.07;;;8.60;47.50;;;;;;10440900;28;20225;-79
2023/12/09 12:22:19;;;;;;;26.10;11.30;;;8.50;48.00;;;;;;10441717;28;20284;-79
2023/12/09 12:27:22;;;;;;;11.00;9.30;;;8.60;47.60;;;;;;10447733;28;20293;-79
2023/12/09 12:32:35;;;;;;;8.43;7.60;;;8.50;47.40;;;;;;10447338;28;20292;-79
2023/12/09 12:37:39;;;;;;;15.23;8.40;;;8.50;47.70;;;;;;10454034;28;20343;-79
2023/12/09 12:42:44;;;;;;;9.80;8.80;;;8.40;47.50;;;;;;10445819;28;20785;-79
2023/12/09 12:47:49;;;;;;;9.43;8.53;;;8.40;47.70;;;;;;10451568;28;21267;-79
2023/12/09 12:52:52;;;;;;;16.60;8.70;;;8.40;48.00;;;;;;10441169;28;20236;-79
2023/12/09 12:57:55;;;;;;;9.73;8.73;;;8.40;47.80;;;;;;10453600;28;20265;-79
2023/12/09 13:03:00;;;;;;;10.67;9.50;;;8.40;47.90;;;;;;10447042;28;20344;-79
2023/12/09 13:08:05;;;;;;;12.30;8.33;;;8.40;48.10;;;;;;10447508;28;21297;-79
2023/12/09 13:13:08;;;;;;;8.53;7.63;;;8.50;47.60;;;;;;10450856;28;20316;-80
2023/12/09 13:18:13;;;;;;;17.47;11.57;;;8.40;47.30;;;;;;10443260;28;20857;-79
2023/12/09 13:23:16;;;;;;;10.00;8.27;;;8.30;47.60;;;;;;10448000;28;20264;-78
2023/12/09 13:28:20;;;;;;;9.50;8.57;;;8.20;47.60;;;;;;10438123;28;20742;-79
2023/12/09 13:33:25;;;;;;;9.93;9.00;;;8.20;47.90;;;;;;10444705;28;20235;-79
2023/12/09 13:38:28;;;;;;;10.30;8.77;;;8.30;48.00;;;;;;10436966;28;20244;-79
2023/12/09 13:43:31;;;;;;;11.17;9.33;;;8.30;47.60;;;;;;10431230;28;20712;-79
2023/12/09 13:48:36;;;;;;;11.63;8.13;;;8.30;47.60;;;;;;10433718;28;20699;-79
2023/12/09 13:53:40;;;;;;;16.80;10.27;;;8.20;47.60;;;;;;10440399;28;20271;-79
2023/12/09 13:58:43;;;;;;;18.27;12.00;;;8.10;47.40;;;;;;10440791;28;20236;-79
2023/12/09 14:03:48;;;;;;;15.73;11.37;;;8.10;47.40;;;;;;10438584;28;20233;-79
2023/12/09 14:08:52;;;;;;;12.40;11.10;;;8.00;47.60;;;;;;10434307;28;20799;-79
2023/12/09 14:13:55;;;;;;;12.43;11.13;;;8.00;47.90;;;;;;10433479;28;20734;-78
2023/12/09 14:19:00;;;;;;;12.27;11.03;;;8.00;48.10;;;;;;10420156;28;20407;-77
2023/12/09 14:24:04;;;;;;;11.47;10.37;;;8.10;48.20;;;;;;10415918;28;20240;-79
2023/12/09 14:29:08;;;;;;;13.97;12.43;;;8.20;48.00;;;;;;10416425;28;20234;-75
2023/12/09 14:34:12;;;;;;;8.20;7.30;;;8.20;47.40;;;;;;10425156;28;20239;-77
2023/12/09 14:39:16;;;;;;;8.70;7.90;;;8.20;47.20;;;;;;10418844;28;20873;-76
2023/12/09 14:44:20;;;;;;;8.87;8.07;;;8.10;47.20;;;;;;10416644;28;20229;-76
2023/12/09 14:49:24;;;;;;;7.93;7.23;;;8.10;47.60;;;;;;10415086;28;20672;-77
2023/12/09 14:54:28;;;;;;;9.87;9.00;;;8.10;47.80;;;;;;10416979;28;20319;-76
2023/12/09 14:59:32;;;;;;;7.43;6.80;;;8.10;47.60;;;;;;10423868;28;20229;-79
2023/12/09 15:04:38;;;;;;;10.00;9.10;;;8.10;47.30;;;;;;10419703;28;20225;-80
2023/12/09 15:09:42;;;;;;;9.63;8.63;;;8.10;47.40;;;;;;10416881;28;20244;-80
2023/12/09 15:14:46;;;;;;;154.50;9.37;;;8.20;47.30;;;;;;10437239;28;20232;-78
2023/12/09 15:19:50;;;;;;;11.87;8.20;;;8.20;46.90;;;;;;10434865;28;20408;-75
2023/12/09 15:24:53;;;;;;;8.87;8.00;;;8.10;46.70;;;;;;10444075;28;20237;-78
2023/12/09 15:29:57;;;;;;;9.33;8.47;;;8.10;46.60;;;;;;10453847;28;20267;-78
2023/12/09 15:35:02;;;;;;;9.03;8.13;;;8.00;46.50;;;;;;10454036;28;20237;-78
2023/12/09 15:40:08;;;;;;;10.50;9.50;;;7.90;46.60;;;;;;10454117;28;20695;-78
2023/12/09 15:45:12;;;;;;;9.77;8.87;;;7.80;46.90;;;;;;10454138;28;20233;-78
2023/12/09 15:50:17;;;;;;;10.60;9.70;;;7.60;46.90;;;;;;10454474;28;20351;-77
2023/12/09 15:55:21;;;;;;;9.77;8.90;;;7.60;47.20;;;;;;10454042;28;20613;-77
2023/12/09 16:00:25;;;;;;;8.87;8.07;;;7.40;47.30;;;;;;10452634;28;20695;-77
2023/12/09 16:05:30;;;;;;;9.03;8.30;;;7.40;47.60;;;;;;10453154;28;20299;-76
2023/12/09 16:10:33;;;;;;;8.83;8.03;;;7.30;47.60;;;;;;10452824;28;20629;-77
2023/12/09 16:15:36;;;;;;;8.20;7.50;;;7.40;47.50;;;;;;10452456;28;20279;-77
2023/12/09 16:20:41;;;;;;;9.43;8.63;;;7.40;47.40;;;;;;10452435;28;20231;-77
2023/12/09 16:25:44;;;;;;;9.97;9.10;;;7.40;47.40;;;;;;10450932;28;20711;-77
2023/12/09 16:30:48;;;;;;;9.37;8.57;;;7.40;47.20;;;;;;10452022;28;20225;-77
2023/12/09 16:35:52;;;;;;;8.70;8.00;;;7.40;47.40;;;;;;10449778;28;20268;-76
2023/12/09 16:40:56;;;;;;;8.27;7.47;;;7.40;47.50;;;;;;10439566;28;20232;-76
2023/12/09 16:45:59;;;;;;;9.20;8.43;;;7.40;47.40;;;;;;10445076;28;20229;-76
2023/12/09 16:51:04;;;;;;;9.60;8.80;;;7.40;47.30;;;;;;10440576;28;20650;-77
2023/12/09 16:56:09;;;;;;;9.03;8.23;;;7.40;47.30;;;;;;10430971;28;20237;-78
2023/12/09 17:01:12;;;;;;;9.20;8.50;;;7.50;47.30;;;;;;10429216;28;20236;-77
2023/12/09 17:06:17;;;;;;;9.30;8.50;;;7.50;47.10;;;;;;10427968;28;20303;-77
2023/12/09 17:11:20;;;;;;;9.90;9.10;;;7.50;47.10;;;;;;10429671;28;20225;-76
2023/12/09 17:16:24;;;;;;;11.53;10.53;;;7.50;46.90;;;;;;10434993;28;20232;-76
2023/12/09 17:21:29;;;;;;;11.63;10.63;;;7.50;46.80;;;;;;10424756;28;20251;-77
2023/12/09 17:26:32;;;;;;;9.90;9.10;;;7.40;46.90;;;;;;10425965;28;20236;-76
2023/12/09 17:31:36;;;;;;;9.80;9.00;;;7.30;46.80;;;;;;10407918;28;20225;-75
2023/12/09 17:36:47;;;;;;;10.00;9.20;;;7.20;47.00;;;;;;10437230;28;20233;-75
2023/12/09 17:41:50;;;;;;;9.00;8.27;;;7.00;47.30;;;;;;10436842;28;20237;-75
2023/12/09 17:46:54;;;;;;;10.27;9.47;;;6.90;47.40;;;;;;10433982;28;20239;-77
2023/12/09 17:52:00;;;;;;;10.23;9.37;;;6.80;47.70;;;;;;10425846;28;20249;-77
2023/12/09 17:57:04;;;;;;;9.97;9.07;;;6.70;48.10;;;;;;10428190;28;20330;-77
2023/12/09 18:02:08;;;;;;;9.37;8.57;;;6.70;48.10;;;;;;10427322;28;20234;-77
2023/12/09 18:07:13;;;;;;;8.40;7.70;;;6.70;48.10;;;;;;10424913;28;20236;-79
2023/12/09 18:12:16;;;;;;;8.90;8.20;;;6.70;48.50;;;;;;10420460;28;20235;-78
2023/12/09 18:17:20;;;;;;;9.83;8.93;;;6.70;48.30;;;;;;10432784;28;20239;-78
2023/12/09 18:22:24;;;;;;;36.60;32.87;;;6.80;48.30;;;;;;10422188;28;20241;-78
2023/12/09 18:27:29;;;;;;;14.77;13.37;;;6.90;48.40;;;;;;10427296;28;20241;-78
2023/12/09 18:32:37;;;;;;;11.40;10.37;;;7.00;48.00;;;;;;10431146;28;20240;-78
2023/12/09 18:37:44;;;;;;;12.53;11.27;;;7.00;47.80;;;;;;10436135;28;20311;-78
2023/12/09 18:42:47;;;;;;;13.97;12.77;;;7.00;47.90;;;;;;10416635;28;20314;-79
2023/12/09 18:47:54;;;;;;;11.67;10.67;;;7.10;47.80;;;;;;10427299;28;20633;-78
2023/12/09 18:52:59;;;;;;;14.23;12.77;;;7.10;47.90;;;;;;10424119;28;20279;-79
2023/12/09 18:58:02;;;;;;;11.43;10.33;;;7.10;47.70;;;;;;10426914;28;20698;-78
2023/12/09 19:03:06;;;;;;;12.13;10.93;;;7.20;47.40;;;;;;10437216;28;20245;-79
2023/12/09 19:08:11;;;;;;;13.77;12.57;;;7.20;47.20;;;;;;10435133;28;20770;-79
2023/12/09 19:13:14;;;;;;;11.30;10.20;;;7.30;47.20;;;;;;10428822;28;20229;-79
2023/12/09 19:18:17;;;;;;;11.33;10.30;;;7.20;47.10;;;;;;10434578;28;20237;-79
2023/12/09 19:23:22;;;;;;;10.27;9.37;;;7.20;47.20;;;;;;10435854;28;20248;-79
2023/12/09 19:28:26;;;;;;;10.10;9.20;;;7.20;47.30;;;;;;10430615;28;20229;-78
2023/12/09 19:33:30;;;;;;;10.27;9.37;;;7.20;47.40;;;;;;10428797;28;20235;-79
2023/12/09 19:38:34;;;;;;;9.47;8.67;;;7.10;47.40;;;;;;10436650;28;20286;-79
2023/12/09 19:43:38;;;;;;;13.60;12.40;;;7.10;47.40;;;;;;10430470;28;20655;-79
2023/12/09 19:48:41;;;;;;;13.07;11.87;;;7.10;47.40;;;;;;10424759;28;22024;-78
2023/12/09 19:53:46;;;;;;;14.90;13.60;;;7.10;47.40;;;;;;10430246;28;20259;-78
2023/12/09 19:58:49;;;;;;;14.23;12.93;;;7.10;47.60;;;;;;10422622;28;20330;-79
2023/12/09 20:03:52;;;;;;;11.00;9.93;;;7.00;47.70;;;;;;10422866;28;20234;-79
2023/12/09 20:08:57;;;;;;;11.07;10.03;;;7.00;47.80;;;;;;10437016;28;20283;-78
2023/12/09 20:14:00;;;;;;;10.40;9.40;;;7.00;47.90;;;;;;10435101;28;20237;-78
2023/12/09 20:19:04;;;;;;;9.57;8.67;;;7.10;47.80;;;;;;10440099;28;20249;-78
2023/12/09 20:24:12;;;;;;;9.17;8.37;;;7.10;47.70;;;;;;10446755;28;20267;-79
2023/12/09 20:29:16;;;;;;;10.33;9.23;;;7.20;47.90;;;;;;10447370;28;20331;-78
2023/12/09 20:34:19;;;;;;;11.47;10.40;;;7.20;47.70;;;;;;10446239;28;20315;-77
2023/12/09 20:39:24;;;;;;;10.60;9.63;;;7.30;47.60;;;;;;10446351;28;20229;-77
2023/12/09 20:44:27;;;;;;;10.07;9.17;;;7.30;47.60;;;;;;10442814;28;20243;-76
2023/12/09 20:49:31;;;;;;;13.97;12.77;;;7.30;47.40;;;;;;10441477;28;20578;-76
2023/12/09 20:54:35;;;;;;;13.53;12.37;;;7.20;47.40;;;;;;10435500;28;20240;-77
2023/12/09 20:59:42;;;;;;;12.40;11.30;;;7.20;47.70;;;;;;10440198;28;20245;-82
2023/12/09 21:04:45;;;;;;;13.67;12.47;;;7.10;47.60;;;;;;10452783;28;20235;-81
2023/12/09 21:09:50;;;;;;;14.93;13.67;;;7.10;47.60;;;;;;10437830;28;20260;-82
2023/12/09 21:14:53;;;;;;;12.10;11.00;;;7.20;47.90;;;;;;10438848;28;20314;-79
2023/12/09 21:19:57;;;;;;;13.40;12.20;;;7.20;47.80;;;;;;10435034;28;20859;-79
2023/12/09 21:25:02;;;;;;;18.40;15.20;;;7.20;47.50;;;;;;10432939;28;20232;-76
2023/12/09 21:30:07;;;;;;;18.27;15.67;;;7.20;47.60;;;;;;10438132;28;20253;-77
2023/12/09 21:35:11;;;;;;;13.17;11.97;;;7.20;47.40;;;;;;10431691;28;20255;-77
2023/12/09 21:40:15;;;;;;;11.20;10.20;;;7.20;47.40;;;;;;10427623;28;20713;-77
2023/12/09 21:45:19;;;;;;;11.50;10.50;;;7.10;47.60;;;;;;10431918;28;20684;-77
2023/12/09 21:50:23;;;;;;;10.53;9.63;;;7.10;47.60;;;;;;10431511;28;20236;-78
2023/12/09 21:55:30;;;;;;;10.30;9.40;;;7.00;47.60;;;;;;10430399;28;20348;-77
2023/12/09 22:00:34;;;;;;;11.70;10.60;;;7.00;47.90;;;;;;10432666;28;20596;-77
2023/12/09 22:05:37;;;;;;;11.07;10.17;;;6.90;47.80;;;;;;10431899;28;20240;-77
2023/12/09 22:10:42;;;;;;;12.30;11.20;;;6.90;48.00;;;;;;10433218;28;20263;-77
2023/12/09 22:15:46;;;;;;;12.73;11.63;;;6.80;48.30;;;;;;10427375;28;20237;-78
2023/12/09 22:20:49;;;;;;;16.57;15.17;;;6.70;48.30;;;;;;10430018;28;20236;-77
2023/12/09 22:25:54;;;;;;;12.07;10.97;;;6.70;48.60;;;;;;10423819;28;20329;-78
2023/12/09 22:30:57;;;;;;;10.73;9.73;;;6.60;49.10;;;;;;10428904;28;20825;-78
2023/12/09 22:36:01;;;;;;;8.80;8.00;;;6.60;49.00;;;;;;10434535;28;20316;-78
2023/12/09 22:41:06;;;;;;;9.90;9.10;;;6.70;50.50;;;;;;10430952;28;20344;-78
2023/12/09 22:46:09;;;;;;;8.17;7.47;;;6.70;50.00;;;;;;10429198;28;20244;-78
2023/12/09 22:51:17;;;;;;;6.87;6.27;;;6.80;50.00;;;;;;10428439;28;20228;-77
2023/12/09 22:56:23;;;;;;;3.07;2.77;;;6.90;50.20;;;;;;10429698;28;20225;-78
2023/12/09 23:01:29;;;;;;;2.20;2.10;;;7.00;51.70;;;;;;10425842;28;20233;-78
2023/12/09 23:06:33;;;;;;;3.50;2.30;;;7.20;52.50;;;;;;10433056;28;20774;-78
2023/12/09 23:11:37;;;;;;;1.60;1.50;;;7.50;52.50;;;;;;10434986;28;20228;-78
2023/12/09 23:16:43;;;;;;;1.33;1.23;;;7.70;52.90;;;;;;10431302;28;20810;-78
2023/12/09 23:21:46;;;;;;;1.40;1.30;;;8.00;52.00;;;;;;10441675;28;20278;-78
2023/12/09 23:26:51;;;;;;;1.23;1.13;;;8.20;51.90;;;;;;10437489;28;20321;-79
2023/12/09 23:31:54;;;;;;;0.93;0.93;;;8.40;52.00;;;;;;10432665;28;20718;-78
2023/12/09 23:36:57;;;;;;;0.80;0.80;;;8.50;51.40;;;;;;10442375;28;20319;-78
2023/12/09 23:42:02;;;;;;;0.80;0.80;;;8.60;51.50;;;;;;10440258;28;20230;-78
2023/12/09 23:47:05;;;;;;;0.67;0.67;;;8.70;51.60;;;;;;10442166;28;20711;-78
2023/12/09 23:52:09;;;;;;;1.90;0.80;;;8.80;51.70;;;;;;10447924;28;20225;-78
2023/12/09 23:57:14;;;;;;;0.97;0.97;;;8.90;51.60;;;;;;10444480;28;20229;-79
